EGTK/OXF METAR and TAF weather

Enter ICAO airport designator
Station Type Date Time Source
EGTK METAR 2020/02/21 14:50 UTC NOAA

EGTK 211450Z 23019KT 9999 SCT025 BKN028 09/05 Q1019


Station Type Date Time Source
EGTK Decoded METAR 2020/02/21 14:50 UTC NOAA

Station name not available
Feb 21, 2020 - 09:50 AM EST / 2020.02.21 1450 UTC
Wind: from the SW (230 degrees) at 22 MPH (19 KT):0
Visibility: greater than 7 mile(s):0
Sky conditions: mostly cloudy
Temperature: 48 F (9 C)
Dew Point: 41 F (5 C)
Relative Humidity: 75%
Pressure (altimeter): 30.09 in. Hg (1019 hPa)
ob: EGTK 211450Z 23019KT 9999 SCT025 BKN028 09/05 Q1019
cycle: 15

Station Type Date Time Source
EGTK TAF UTC NOAA

Error!

Example: see airport list